sensor_id;sensor_type;location;lat;lon;timestamp;pressure;altitude;pressure_sealevel;temperature;humidity
75717;BME280;64333;50.138;14.332;2022-12-10T00:01:17;96972.81;;;2.18;82.67
75717;BME280;64333;50.138;14.332;2022-12-10T00:03:43;96971.13;;;2.17;82.90
75717;BME280;64333;50.138;14.332;2022-12-10T00:06:20;96980.53;;;2.15;83.07
75717;BME280;64333;50.138;14.332;2022-12-10T00:08:46;96967.91;;;2.12;83.13
75717;BME280;64333;50.138;14.332;2022-12-10T00:11:13;96967.88;;;2.14;83.03
75717;BME280;64333;50.138;14.332;2022-12-10T00:13:39;96967.78;;;2.15;82.89
75717;BME280;64333;50.138;14.332;2022-12-10T00:16:12;96968.06;;;2.08;83.24
75717;BME280;64333;50.138;14.332;2022-12-10T00:18:41;96967.25;;;2.06;83.95
75717;BME280;64333;50.138;14.332;2022-12-10T00:21:12;96978.19;;;2.09;83.83
75717;BME280;64333;50.138;14.332;2022-12-10T00:23:39;96982.53;;;2.06;83.60
75717;BME280;64333;50.138;14.332;2022-12-10T00:26:06;96982.75;;;2.00;83.91
75717;BME280;64333;50.138;14.332;2022-12-10T00:28:32;96981.78;;;2.02;83.84
75717;BME280;64333;50.138;14.332;2022-12-10T00:31:06;96976.63;;;2.05;83.73
75717;BME280;64333;50.138;14.332;2022-12-10T00:33:32;96988.50;;;2.05;84.04
75717;BME280;64333;50.138;14.332;2022-12-10T00:36:05;96988.66;;;2.00;84.55
75717;BME280;64333;50.138;14.332;2022-12-10T00:38:31;96977.00;;;1.93;84.54
75717;BME280;64333;50.138;14.332;2022-12-10T00:40:56;96976.81;;;1.99;84.59
75717;BME280;64333;50.138;14.332;2022-12-10T00:43:22;96970.13;;;1.95;85.29
75717;BME280;64333;50.138;14.332;2022-12-10T00:45:47;96985.22;;;2.01;85.18
75717;BME280;64333;50.138;14.332;2022-12-10T00:48:12;96987.00;;;1.99;85.10
75717;BME280;64333;50.138;14.332;2022-12-10T00:50:38;96982.78;;;1.98;84.87
75717;BME280;64333;50.138;14.332;2022-12-10T00:53:03;96988.75;;;1.97;85.12
75717;BME280;64333;50.138;14.332;2022-12-10T00:55:28;96988.84;;;1.94;85.48
75717;BME280;64333;50.138;14.332;2022-12-10T00:57:53;96990.50;;;1.95;85.45
75717;BME280;64333;50.138;14.332;2022-12-10T01:00:19;96998.97;;;1.96;85.53
75717;BME280;64333;50.138;14.332;2022-12-10T01:02:44;96996.28;;;2.00;85.20
75717;BME280;64333;50.138;14.332;2022-12-10T01:05:10;96988.03;;;1.94;85.00
75717;BME280;64333;50.138;14.332;2022-12-10T01:07:35;96999.81;;;1.96;85.16
75717;BME280;64333;50.138;14.332;2022-12-10T01:10:01;96999.91;;;1.93;85.22
75717;BME280;64333;50.138;14.332;2022-12-10T01:12:26;96995.69;;;1.92;85.09
75717;BME280;64333;50.138;14.332;2022-12-10T01:14:52;97004.25;;;1.90;85.05
75717;BME280;64333;50.138;14.332;2022-12-10T01:17:17;97002.75;;;1.84;85.38
75717;BME280;64333;50.138;14.332;2022-12-10T01:19:42;97006.03;;;1.88;85.42
75717;BME280;64333;50.138;14.332;2022-12-10T01:22:07;96997.66;;;1.84;84.82
75717;BME280;64333;50.138;14.332;2022-12-10T01:24:33;97006.81;;;1.90;84.84
75717;BME280;64333;50.138;14.332;2022-12-10T01:26:59;97006.03;;;1.88;84.87
75717;BME280;64333;50.138;14.332;2022-12-10T01:29:24;97002.63;;;1.87;85.40
75717;BME280;64333;50.138;14.332;2022-12-10T01:31:53;97006.66;;;1.94;85.02
75717;BME280;64333;50.138;14.332;2022-12-10T01:34:19;96999.09;;;1.93;85.03
75717;BME280;64333;50.138;14.332;2022-12-10T01:36:50;97002.25;;;1.99;84.75
75717;BME280;64333;50.138;14.332;2022-12-10T01:39:18;96999.88;;;1.95;84.47
75717;BME280;64333;50.138;14.332;2022-12-10T01:41:49;97009.19;;;1.94;85.13
75717;BME280;64333;50.138;14.332;2022-12-10T01:46:45;96984.81;;;1.87;84.91
75717;BME280;64333;50.138;14.332;2022-12-10T01:51:48;97010.19;;;1.90;85.01
75717;BME280;64333;50.138;14.332;2022-12-10T01:54:18;97007.03;;;1.82;85.36
75717;BME280;64333;50.138;14.332;2022-12-10T01:56:47;97002.19;;;1.75;85.22
75717;BME280;64333;50.138;14.332;2022-12-10T01:59:14;96993.84;;;1.70;85.17
75717;BME280;64333;50.138;14.332;2022-12-10T02:01:54;97011.13;;;1.59;86.54
75717;BME280;64333;50.138;14.332;2022-12-10T02:04:36;97000.59;;;1.43;87.06
75717;BME280;64333;50.138;14.332;2022-12-10T02:10:07;97009.00;;;1.45;87.29
75717;BME280;64333;50.138;14.332;2022-12-10T02:12:40;97006.03;;;1.59;87.19
75717;BME280;64333;50.138;14.332;2022-12-10T02:15:12;97009.25;;;1.65;86.68
75717;BME280;64333;50.138;14.332;2022-12-10T02:17:43;97015.84;;;1.71;86.55
75717;BME280;64333;50.138;14.332;2022-12-10T02:20:17;97015.69;;;1.77;86.11
75717;BME280;64333;50.138;14.332;2022-12-10T02:22:48;97016.53;;;1.77;85.73
75717;BME280;64333;50.138;14.332;2022-12-10T02:25:15;97012.31;;;1.76;85.47
75717;BME280;64333;50.138;14.332;2022-12-10T02:27:44;97013.09;;;1.78;85.52
75717;BME280;64333;50.138;14.332;2022-12-10T02:30:11;97024.06;;;1.80;85.55
75717;BME280;64333;50.138;14.332;2022-12-10T02:32:38;97013.19;;;1.75;85.66
75717;BME280;64333;50.138;14.332;2022-12-10T02:35:14;97025.22;;;1.70;85.63
75717;BME280;64333;50.138;14.332;2022-12-10T02:37:49;97022.78;;;1.66;86.04
75717;BME280;64333;50.138;14.332;2022-12-10T02:40:20;97017.81;;;1.63;85.83
75717;BME280;64333;50.138;14.332;2022-12-10T02:42:49;97028.63;;;1.69;85.64
75717;BME280;64333;50.138;14.332;2022-12-10T02:45:16;97023.25;;;1.51;86.35
75717;BME280;64333;50.138;14.332;2022-12-10T02:47:42;97027.34;;;1.56;85.75
75717;BME280;64333;50.138;14.332;2022-12-10T02:50:10;97022.84;;;1.64;85.83
75717;BME280;64333;50.138;14.332;2022-12-10T02:52:36;97032.91;;;1.69;85.49
75717;BME280;64333;50.138;14.332;2022-12-10T02:55:01;97037.06;;;1.71;85.55
75717;BME280;64333;50.138;14.332;2022-12-10T02:57:42;97033.91;;;1.63;85.95
75717;BME280;64333;50.138;14.332;2022-12-10T03:11:01;97033.72;;;1.69;86.24
75717;BME280;64333;50.138;14.332;2022-12-10T03:13:36;97037.94;;;1.70;85.94
75717;BME280;64333;50.138;14.332;2022-12-10T03:16:04;97041.34;;;1.69;86.20
75717;BME280;64333;50.138;14.332;2022-12-10T03:18:31;97037.25;;;1.65;86.91
75717;BME280;64333;50.138;14.332;2022-12-10T03:21:01;97036.47;;;1.63;86.52
75717;BME280;64333;50.138;14.332;2022-12-10T03:23:28;97052.41;;;1.68;86.24
75717;BME280;64333;50.138;14.332;2022-12-10T03:25:54;97054.06;;;1.69;86.26
75717;BME280;64333;50.138;14.332;2022-12-10T03:28:21;97046.44;;;1.69;86.62
75717;BME280;64333;50.138;14.332;2022-12-10T03:30:48;97052.50;;;1.65;85.68
75717;BME280;64333;50.138;14.332;2022-12-10T03:33:15;97045.75;;;1.64;86.27
75717;BME280;64333;50.138;14.332;2022-12-10T03:35:41;97044.84;;;1.67;86.09
75717;BME280;64333;50.138;14.332;2022-12-10T03:38:07;97052.34;;;1.71;86.10
75717;BME280;64333;50.138;14.332;2022-12-10T03:40:33;97038.03;;;1.67;86.11
75717;BME280;64333;50.138;14.332;2022-12-10T03:42:59;97048.72;;;1.78;86.17
75717;BME280;64333;50.138;14.332;2022-12-10T03:45:24;97045.19;;;1.82;85.94
75717;BME280;64333;50.138;14.332;2022-12-10T03:47:49;97046.09;;;1.81;85.86
75717;BME280;64333;50.138;14.332;2022-12-10T03:50:15;97044.25;;;1.86;85.74
75717;BME280;64333;50.138;14.332;2022-12-10T03:52:41;97048.44;;;1.87;85.68
75717;BME280;64333;50.138;14.332;2022-12-10T03:55:06;97034.94;;;1.85;85.18
75717;BME280;64333;50.138;14.332;2022-12-10T03:57:32;97034.16;;;1.83;85.90
75717;BME280;64333;50.138;14.332;2022-12-10T03:59:58;97035.75;;;1.86;85.62
75717;BME280;64333;50.138;14.332;2022-12-10T04:02:23;97039.94;;;1.88;85.38
75717;BME280;64333;50.138;14.332;2022-12-10T04:04:48;97037.34;;;1.90;85.54
75717;BME280;64333;50.138;14.332;2022-12-10T04:07:14;97029.66;;;1.91;85.33
75717;BME280;64333;50.138;14.332;2022-12-10T04:09:39;97034.75;;;1.91;85.73
75717;BME280;64333;50.138;14.332;2022-12-10T04:12:05;97031.38;;;1.91;86.09
75717;BME280;64333;50.138;14.332;2022-12-10T04:14:30;97031.38;;;1.91;85.55
75717;BME280;64333;50.138;14.332;2022-12-10T04:17:14;97029.66;;;1.91;85.50
75717;BME280;64333;50.138;14.332;2022-12-10T04:19:39;97029.72;;;1.90;85.56
75717;BME280;64333;50.138;14.332;2022-12-10T04:22:05;97022.25;;;1.84;85.90
75717;BME280;64333;50.138;14.332;2022-12-10T04:24:49;97029.06;;;1.83;85.88
75717;BME280;64333;50.138;14.332;2022-12-10T04:27:36;97027.34;;;1.84;86.24
75717;BME280;64333;50.138;14.332;2022-12-10T04:30:04;97017.09;;;1.87;85.89
75717;BME280;64333;50.138;14.332;2022-12-10T04:32:29;97033.09;;;1.90;85.76
75717;BME280;64333;50.138;14.332;2022-12-10T04:34:55;97022.03;;;1.91;85.62
75717;BME280;64333;50.138;14.332;2022-12-10T04:37:21;97028.94;;;1.88;85.94
75717;BME280;64333;50.138;14.332;2022-12-10T04:39:49;97021.22;;;1.89;85.58
75717;BME280;64333;50.138;14.332;2022-12-10T04:42:15;97012.81;;;1.87;85.60
75717;BME280;64333;50.138;14.332;2022-12-10T04:44:40;97020.69;;;1.80;85.92
75717;BME280;64333;50.138;14.332;2022-12-10T04:47:07;97012.97;;;1.83;85.80
75717;BME280;64333;50.138;14.332;2022-12-10T04:49:33;97023.00;;;1.87;85.34
75717;BME280;64333;50.138;14.332;2022-12-10T04:51:58;97012.00;;;1.87;85.26
75717;BME280;64333;50.138;14.332;2022-12-10T04:54:24;97025.31;;;1.95;84.98
75717;BME280;64333;50.138;14.332;2022-12-10T04:56:50;97019.19;;;2.00;85.11
75717;BME280;64333;50.138;14.332;2022-12-10T04:59:16;97016.63;;;2.02;84.82
75717;BME280;64333;50.138;14.332;2022-12-10T05:01:41;97009.03;;;2.00;85.31
75717;BME280;64333;50.138;14.332;2022-12-10T05:04:09;97023.25;;;2.06;85.17
75717;BME280;64333;50.138;14.332;2022-12-10T05:06:35;97019.91;;;2.05;85.30
75717;BME280;64333;50.138;14.332;2022-12-10T05:09:02;97020.97;;;1.98;85.38
75717;BME280;64333;50.138;14.332;2022-12-10T05:11:29;97015.00;;;1.99;85.33
75717;BME280;64333;50.138;14.332;2022-12-10T05:13:55;97019.94;;;2.04;85.63
75717;BME280;64333;50.138;14.332;2022-12-10T05:16:23;97018.31;;;2.01;85.61
75717;BME280;64333;50.138;14.332;2022-12-10T05:18:49;97010.94;;;1.94;85.52
75717;BME280;64333;50.138;14.332;2022-12-10T05:21:16;97029.19;;;2.06;85.45
75717;BME280;64333;50.138;14.332;2022-12-10T05:23:45;97015.88;;;1.98;85.52
75717;BME280;64333;50.138;14.332;2022-12-10T05:26:22;97036.06;;;2.04;85.51
75717;BME280;64333;50.138;14.332;2022-12-10T05:28:53;97031.84;;;2.03;85.48
75717;BME280;64333;50.138;14.332;2022-12-10T05:31:23;97020.06;;;2.01;85.27
75717;BME280;64333;50.138;14.332;2022-12-10T05:33:49;97035.31;;;2.01;85.34
75717;BME280;64333;50.138;14.332;2022-12-10T05:36:18;97032.22;;;1.91;85.50
75717;BME280;64333;50.138;14.332;2022-12-10T05:38:44;97036.44;;;1.92;85.72
75717;BME280;64333;50.138;14.332;2022-12-10T05:41:12;97028.09;;;1.87;85.91
75717;BME280;64333;50.138;14.332;2022-12-10T05:43:38;97034.16;;;1.83;86.48
75717;BME280;64333;50.138;14.332;2022-12-10T05:46:06;97043.53;;;1.81;86.47
75717;BME280;64333;50.138;14.332;2022-12-10T05:48:33;97035.16;;;1.78;86.68
75717;BME280;64333;50.138;14.332;2022-12-10T05:51:04;97037.06;;;1.71;86.60
75717;BME280;64333;50.138;14.332;2022-12-10T05:53:29;97027.06;;;1.65;87.64
75717;BME280;64333;50.138;14.332;2022-12-10T05:56:03;97034.69;;;1.65;87.58
75717;BME280;64333;50.138;14.332;2022-12-10T05:58:29;97040.75;;;1.61;87.91
75717;BME280;64333;50.138;14.332;2022-12-10T06:00:56;97035.88;;;1.54;87.92
75717;BME280;64333;50.138;14.332;2022-12-10T06:03:22;97041.84;;;1.53;88.19
75717;BME280;64333;50.138;14.332;2022-12-10T06:05:48;97036.09;;;1.46;88.49
75717;BME280;64333;50.138;14.332;2022-12-10T06:08:13;97046.38;;;1.43;88.63
75717;BME280;64333;50.138;14.332;2022-12-10T06:10:38;97054.78;;;1.45;88.57
75717;BME280;64333;50.138;14.332;2022-12-10T06:13:04;97054.81;;;1.44;88.48
75717;BME280;64333;50.138;14.332;2022-12-10T06:15:30;97046.44;;;1.40;88.70
75717;BME280;64333;50.138;14.332;2022-12-10T06:17:56;97050.50;;;1.46;88.78
75717;BME280;64333;50.138;14.332;2022-12-10T06:20:22;97053.03;;;1.47;88.98
75717;BME280;64333;50.138;14.332;2022-12-10T06:22:48;97047.13;;;1.47;88.74
75717;BME280;64333;50.138;14.332;2022-12-10T06:25:13;97052.94;;;1.50;88.57
75717;BME280;64333;50.138;14.332;2022-12-10T06:27:39;97062.44;;;1.44;88.75
75717;BME280;64333;50.138;14.332;2022-12-10T06:30:04;97065.97;;;1.40;89.36
75717;BME280;64333;50.138;14.332;2022-12-10T06:32:30;97068.53;;;1.38;89.28
75717;BME280;64333;50.138;14.332;2022-12-10T06:34:55;97074.38;;;1.42;89.25
75717;BME280;64333;50.138;14.332;2022-12-10T06:37:21;97070.03;;;1.45;89.13
75717;BME280;64333;50.138;14.332;2022-12-10T06:39:46;97054.84;;;1.42;88.63
75717;BME280;64333;50.138;14.332;2022-12-10T06:42:11;97069.78;;;1.54;88.34
75717;BME280;64333;50.138;14.332;2022-12-10T06:44:37;97073.97;;;1.55;88.16
75717;BME280;64333;50.138;14.332;2022-12-10T06:47:02;97075.56;;;1.59;88.35
75717;BME280;64333;50.138;14.332;2022-12-10T06:49:27;97064.53;;;1.60;88.36
75717;BME280;64333;50.138;14.332;2022-12-10T06:51:53;97071.97;;;1.66;87.91
75717;BME280;64333;50.138;14.332;2022-12-10T06:54:18;97073.03;;;1.59;88.17
75717;BME280;64333;50.138;14.332;2022-12-10T06:56:43;97070.66;;;1.53;88.21
75717;BME280;64333;50.138;14.332;2022-12-10T06:59:09;97061.69;;;1.40;88.71
75717;BME280;64333;50.138;14.332;2022-12-10T07:01:34;97072.59;;;1.45;88.50
75717;BME280;64333;50.138;14.332;2022-12-10T07:03:59;97086.06;;;1.49;89.01
75717;BME280;64333;50.138;14.332;2022-12-10T07:06:26;97075.75;;;1.53;88.26
75717;BME280;64333;50.138;14.332;2022-12-10T07:08:53;97086.47;;;1.64;88.18
75717;BME280;64333;50.138;14.332;2022-12-10T07:11:22;97079.59;;;1.68;87.98
75717;BME280;64333;50.138;14.332;2022-12-10T07:13:48;97079.34;;;1.75;87.55
75717;BME280;64333;50.138;14.332;2022-12-10T07:16:22;97082.59;;;1.80;87.70
75717;BME280;64333;50.138;14.332;2022-12-10T07:18:49;97079.16;;;1.81;87.59
75717;BME280;64333;50.138;14.332;2022-12-10T07:23:43;97093.44;;;1.87;86.89
75717;BME280;64333;50.138;14.332;2022-12-10T07:26:08;97090.78;;;1.91;86.92
75717;BME280;64333;50.138;14.332;2022-12-10T07:28:33;97095.75;;;1.94;86.39
75717;BME280;64333;50.138;14.332;2022-12-10T07:31:04;97094.84;;;1.97;86.59
75717;BME280;64333;50.138;14.332;2022-12-10T07:33:29;97090.59;;;1.97;86.38
75717;BME280;64333;50.138;14.332;2022-12-10T07:35:55;97096.50;;;1.98;86.75
75717;BME280;64333;50.138;14.332;2022-12-10T07:38:22;97089.72;;;1.98;85.94
75717;BME280;64333;50.138;14.332;2022-12-10T07:40:47;97077.91;;;1.96;85.83
75717;BME280;64333;50.138;14.332;2022-12-10T07:43:12;97092.91;;;2.05;86.05
75717;BME280;64333;50.138;14.332;2022-12-10T07:45:38;97086.81;;;2.10;86.09
75717;BME280;64333;50.138;14.332;2022-12-10T07:48:03;97100.22;;;2.15;85.91
75717;BME280;64333;50.138;14.332;2022-12-10T07:50:29;97094.25;;;2.16;84.94
75717;BME280;64333;50.138;14.332;2022-12-10T07:52:54;97101.69;;;2.22;85.32
75717;BME280;64333;50.138;14.332;2022-12-10T07:55:19;97107.44;;;2.29;85.14
75717;BME280;64333;50.138;14.332;2022-12-10T07:57:45;97107.16;;;2.38;84.60
75717;BME280;64333;50.138;14.332;2022-12-10T08:00:11;97112.03;;;2.45;84.43
75717;BME280;64333;50.138;14.332;2022-12-10T08:02:36;97112.91;;;2.44;84.38
75717;BME280;64333;50.138;14.332;2022-12-10T08:05:02;97128.03;;;2.50;83.76
75717;BME280;64333;50.138;14.332;2022-12-10T08:07:27;97121.13;;;2.54;83.88
75717;BME280;64333;50.138;14.332;2022-12-10T08:09:52;97124.59;;;2.51;83.70
75717;BME280;64333;50.138;14.332;2022-12-10T08:12:18;97118.75;;;2.48;83.78
75717;BME280;64333;50.138;14.332;2022-12-10T08:14:43;97124.59;;;2.51;83.26
75717;BME280;64333;50.138;14.332;2022-12-10T08:17:08;97122.81;;;2.53;83.20
75717;BME280;64333;50.138;14.332;2022-12-10T08:19:34;97124.56;;;2.53;82.65
75717;BME280;64333;50.138;14.332;2022-12-10T08:21:59;97133.03;;;2.52;83.01
75717;BME280;64333;50.138;14.332;2022-12-10T08:24:25;97136.34;;;2.55;82.83
75717;BME280;64333;50.138;14.332;2022-12-10T08:26:50;97135.69;;;2.49;83.52
75717;BME280;64333;50.138;14.332;2022-12-10T08:29:15;97123.81;;;2.49;83.88
75717;BME280;64333;50.138;14.332;2022-12-10T08:31:41;97146.53;;;2.55;83.74
75717;BME280;64333;50.138;14.332;2022-12-10T08:34:12;97142.97;;;2.33;84.16
75717;BME280;64333;50.138;14.332;2022-12-10T08:36:38;97157.13;;;2.14;85.00
75717;BME280;64333;50.138;14.332;2022-12-10T08:39:03;97152.56;;;2.25;85.35
75717;BME280;64333;50.138;14.332;2022-12-10T08:41:28;97143.19;;;2.26;85.18
75717;BME280;64333;50.138;14.332;2022-12-10T08:43:54;97145.72;;;2.26;85.53
75717;BME280;64333;50.138;14.332;2022-12-10T08:46:20;97143.84;;;2.32;85.31
75717;BME280;64333;50.138;14.332;2022-12-10T08:48:46;97141.31;;;2.32;84.69
75717;BME280;64333;50.138;14.332;2022-12-10T08:51:15;97139.81;;;2.25;85.25
75717;BME280;64333;50.138;14.332;2022-12-10T08:53:41;97140.59;;;2.27;85.22
75717;BME280;64333;50.138;14.332;2022-12-10T08:56:07;97140.97;;;2.43;85.05
75717;BME280;64333;50.138;14.332;2022-12-10T08:58:32;97142.47;;;2.50;84.27
75717;BME280;64333;50.138;14.332;2022-12-10T09:00:58;97146.75;;;2.49;84.44
75717;BME280;64333;50.138;14.332;2022-12-10T09:03:24;97146.75;;;2.49;84.73
75717;BME280;64333;50.138;14.332;2022-12-10T09:05:49;97144.13;;;2.51;84.32
75717;BME280;64333;50.138;14.332;2022-12-10T09:08:15;97146.63;;;2.52;84.06
75717;BME280;64333;50.138;14.332;2022-12-10T09:10:40;97136.41;;;2.54;84.12
75717;BME280;64333;50.138;14.332;2022-12-10T09:13:06;97136.34;;;2.55;83.63
75717;BME280;64333;50.138;14.332;2022-12-10T09:15:32;97127.84;;;2.56;83.98
75717;BME280;64333;50.138;14.332;2022-12-10T09:17:57;97126.09;;;2.57;83.87
75717;BME280;64333;50.138;14.332;2022-12-10T09:20:23;97125.03;;;2.64;83.85
75717;BME280;64333;50.138;14.332;2022-12-10T09:22:48;97124.88;;;2.68;83.74
75717;BME280;64333;50.138;14.332;2022-12-10T09:25:14;97119.34;;;2.56;84.41
75717;BME280;64333;50.138;14.332;2022-12-10T09:27:43;97115.28;;;2.50;84.76
75717;BME280;64333;50.138;14.332;2022-12-10T09:30:10;97123.91;;;2.72;83.31
75717;BME280;64333;50.138;14.332;2022-12-10T09:32:35;97116.56;;;2.89;82.59
75717;BME280;64333;50.138;14.332;2022-12-10T09:35:01;97106.06;;;2.98;82.19
75717;BME280;64333;50.138;14.332;2022-12-10T09:37:27;97101.59;;;2.79;82.73
75717;BME280;64333;50.138;14.332;2022-12-10T09:39:52;97083.47;;;2.88;82.67
75717;BME280;64333;50.138;14.332;2022-12-10T09:42:30;97094.00;;;3.03;82.16
75717;BME280;64333;50.138;14.332;2022-12-10T09:45:12;97085.84;;;2.92;82.03
75717;BME280;64333;50.138;14.332;2022-12-10T09:50:30;97107.91;;;2.93;81.90
75717;BME280;64333;50.138;14.332;2022-12-10T09:52:59;97106.28;;;3.17;80.47
75717;BME280;64333;50.138;14.332;2022-12-10T09:55:43;97112.63;;;3.05;80.41
75717;BME280;64333;50.138;14.332;2022-12-10T09:58:29;97122.44;;;3.17;80.04
75717;BME280;64333;50.138;14.332;2022-12-10T10:01:03;97132.22;;;3.29;79.67
75717;BME280;64333;50.138;14.332;2022-12-10T10:03:40;97112.66;;;3.28;79.58
75717;BME280;64333;50.138;14.332;2022-12-10T10:06:10;97122.66;;;3.34;78.53
75717;BME280;64333;50.138;14.332;2022-12-10T10:08:45;97124.25;;;3.38;78.91
75717;BME280;64333;50.138;14.332;2022-12-10T10:11:18;97123.34;;;3.39;78.26
75717;BME280;64333;50.138;14.332;2022-12-10T10:13:46;97126.53;;;3.46;77.86
75717;BME280;64333;50.138;14.332;2022-12-10T10:19:06;97120.72;;;3.42;78.36
75717;BME280;64333;50.138;14.332;2022-12-10T10:21:41;97118.97;;;3.18;78.40
75717;BME280;64333;50.138;14.332;2022-12-10T10:24:13;97112.91;;;3.22;79.60
75717;BME280;64333;50.138;14.332;2022-12-10T10:26:39;97099.34;;;3.20;78.56
75717;BME280;64333;50.138;14.332;2022-12-10T10:29:08;97102.00;;;3.17;78.47
75717;BME280;64333;50.138;14.332;2022-12-10T10:31:38;97104.66;;;3.14;79.41
75717;BME280;64333;50.138;14.332;2022-12-10T10:34:06;97108.25;;;3.09;79.79
75717;BME280;64333;50.138;14.332;2022-12-10T10:36:38;97099.34;;;3.20;79.72
75717;BME280;64333;50.138;14.332;2022-12-10T10:41:38;97117.72;;;3.05;79.48
75717;BME280;64333;50.138;14.332;2022-12-10T10:44:13;97113.16;;;3.15;78.79
75717;BME280;64333;50.138;14.332;2022-12-10T10:46:40;97114.28;;;3.06;79.43
75717;BME280;64333;50.138;14.332;2022-12-10T10:49:33;97122.22;;;3.23;79.15
75717;BME280;64333;50.138;14.332;2022-12-10T10:52:12;97121.69;;;3.38;78.97
75717;BME280;64333;50.138;14.332;2022-12-10T10:54:40;97105.13;;;3.50;78.23
75717;BME280;64333;50.138;14.332;2022-12-10T10:59:36;97104.38;;;3.23;78.61
75717;BME280;64333;50.138;14.332;2022-12-10T11:04:48;97096.84;;;3.19;78.87
75717;BME280;64333;50.138;14.332;2022-12-10T11:07:47;97107.66;;;3.27;79.48
75717;BME280;64333;50.138;14.332;2022-12-10T11:10:20;97105.63;;;3.36;80.41
75717;BME280;64333;50.138;14.332;2022-12-10T11:17:49;97093.34;;;3.21;77.80
75717;BME280;64333;50.138;14.332;2022-12-10T11:20:28;97107.53;;;3.30;77.69
75717;BME280;64333;50.138;14.332;2022-12-10T11:23:02;97105.66;;;3.35;77.77
75717;BME280;64333;50.138;14.332;2022-12-10T11:34:09;97136.31;;;3.33;77.49
75717;BME280;64333;50.138;14.332;2022-12-10T11:36:56;97135.38;;;3.36;76.85
75717;BME280;64333;50.138;14.332;2022-12-10T11:39:58;97139.38;;;3.18;77.53
75717;BME280;64333;50.138;14.332;2022-12-10T11:47:48;97116.69;;;3.11;78.45
75717;BME280;64333;50.138;14.332;2022-12-10T11:50:39;97111.72;;;3.06;78.31
75717;BME280;64333;50.138;14.332;2022-12-10T11:56:08;97099.66;;;2.87;79.29
75717;BME280;64333;50.138;14.332;2022-12-10T12:04:30;97108.41;;;2.52;80.93
75717;BME280;64333;50.138;14.332;2022-12-10T12:10:17;97099.19;;;2.74;80.58
75717;BME280;64333;50.138;14.332;2022-12-10T12:15:20;97092.44;;;2.73;79.61
75717;BME280;64333;50.138;14.332;2022-12-10T12:17:53;97096.38;;;2.83;80.00
75717;BME280;64333;50.138;14.332;2022-12-10T12:20:45;97083.66;;;2.82;79.76
75717;BME280;64333;50.138;14.332;2022-12-10T12:23:19;97089.88;;;2.99;79.77
75717;BME280;64333;50.138;14.332;2022-12-10T12:25:50;97101.88;;;2.96;79.54
75717;BME280;64333;50.138;14.332;2022-12-10T12:28:28;97106.69;;;3.05;79.16
75717;BME280;64333;50.138;14.332;2022-12-10T12:31:12;97105.31;;;3.21;78.50
75717;BME280;64333;50.138;14.332;2022-12-10T12:33:47;97110.25;;;3.25;78.30
75717;BME280;64333;50.138;14.332;2022-12-10T12:36:17;97108.84;;;2.91;79.14
75717;BME280;64333;50.138;14.332;2022-12-10T12:38:59;97099.66;;;3.11;78.46
75717;BME280;64333;50.138;14.332;2022-12-10T12:41:41;97096.38;;;3.08;78.53
75717;BME280;64333;50.138;14.332;2022-12-10T12:44:19;97093.56;;;2.91;78.42
75717;BME280;64333;50.138;14.332;2022-12-10T12:46:48;97087.84;;;3.09;78.63
75717;BME280;64333;50.138;14.332;2022-12-10T12:49:18;97090.28;;;3.12;76.79
75717;BME280;64333;50.138;14.332;2022-12-10T12:51:50;97082.03;;;3.05;76.14
75717;BME280;64333;50.138;14.332;2022-12-10T12:54:17;97090.34;;;3.10;76.47
75717;BME280;64333;50.138;14.332;2022-12-10T13:02:26;97104.03;;;3.32;74.99
75717;BME280;64333;50.138;14.332;2022-12-10T13:04:52;97103.28;;;3.30;75.74
75717;BME280;64333;50.138;14.332;2022-12-10T13:12:32;97093.19;;;3.50;75.14
75717;BME280;64333;50.138;14.332;2022-12-10T13:18:23;97091.06;;;3.38;74.74
75717;BME280;64333;50.138;14.332;2022-12-10T13:21:16;97093.47;;;3.43;75.27
75717;BME280;64333;50.138;14.332;2022-12-10T13:23:48;97102.72;;;3.45;75.42
75717;BME280;64333;50.138;14.332;2022-12-10T13:26:30;97096.84;;;3.43;75.33
75717;BME280;64333;50.138;14.332;2022-12-10T13:29:23;97103.56;;;3.46;75.85
75717;BME280;64333;50.138;14.332;2022-12-10T13:31:57;97098.59;;;3.41;75.08
75717;BME280;64333;50.138;14.332;2022-12-10T13:34:31;97112.59;;;3.31;75.37
75717;BME280;64333;50.138;14.332;2022-12-10T13:47:43;97113.53;;;2.78;77.36
75717;BME280;64333;50.138;14.332;2022-12-10T13:56:00;97126.06;;;2.84;77.69
75717;BME280;64333;50.138;14.332;2022-12-10T14:01:33;97123.53;;;2.84;77.31
75717;BME280;64333;50.138;14.332;2022-12-10T14:06:48;97134.50;;;2.86;77.04
75717;BME280;64333;50.138;14.332;2022-12-10T14:09:27;97138.22;;;2.50;77.96
75717;BME280;64333;50.138;14.332;2022-12-10T14:11:57;97134.13;;;2.45;78.32
75717;BME280;64333;50.138;14.332;2022-12-10T14:14:31;97135.75;;;2.47;78.97
75717;BME280;64333;50.138;14.332;2022-12-10T14:17:06;97136.44;;;2.52;79.22
75717;BME280;64333;50.138;14.332;2022-12-10T14:19:34;97139.22;;;2.45;78.70
75717;BME280;64333;50.138;14.332;2022-12-10T14:22:05;97153.50;;;2.50;79.18
75717;BME280;64333;50.138;14.332;2022-12-10T14:24:37;97138.28;;;2.47;79.01
75717;BME280;64333;50.138;14.332;2022-12-10T14:27:18;97144.78;;;2.30;79.98
75717;BME280;64333;50.138;14.332;2022-12-10T14:29:59;97161.22;;;2.20;80.53
75717;BME280;64333;50.138;14.332;2022-12-10T14:32:32;97159.13;;;2.32;80.24
75717;BME280;64333;50.138;14.332;2022-12-10T14:34:59;97167.56;;;2.34;80.75
75717;BME280;64333;50.138;14.332;2022-12-10T14:37:28;97171.00;;;2.33;79.69
75717;BME280;64333;50.138;14.332;2022-12-10T14:39:55;97171.09;;;2.30;80.00
75717;BME280;64333;50.138;14.332;2022-12-10T14:42:22;97169.50;;;2.26;80.63
75717;BME280;64333;50.138;14.332;2022-12-10T14:44:56;97177.84;;;2.31;80.06
75717;BME280;64333;50.138;14.332;2022-12-10T14:47:22;97173.53;;;2.33;80.22
75717;BME280;64333;50.138;14.332;2022-12-10T14:49:51;97172.66;;;2.34;80.34
75717;BME280;64333;50.138;14.332;2022-12-10T14:52:24;97166.00;;;2.30;80.69
75717;BME280;64333;50.138;14.332;2022-12-10T14:54:51;97166.00;;;2.30;80.64